createdAt,value
2023-04-16T00:00:11.651Z,96312.40
2023-04-16T00:02:59.753Z,96308.80
2023-04-16T00:05:28.186Z,96312.20
2023-04-16T00:07:56.250Z,96310.80
2023-04-16T00:10:24.402Z,96311.60
2023-04-16T00:12:52.450Z,96315.80
2023-04-16T00:15:20.715Z,96312.00
2023-04-16T00:17:48.884Z,96310.40
2023-04-16T00:20:16.943Z,96316.20
2023-04-16T00:22:45.032Z,96312.00
2023-04-16T00:25:13.845Z,96309.40
2023-04-16T00:27:41.962Z,96310.20
2023-04-16T00:30:10.116Z,96309.40
2023-04-16T00:32:38.171Z,96312.00
2023-04-16T00:35:06.894Z,96314.20
2023-04-16T00:37:34.960Z,96315.60
2023-04-16T00:40:03.179Z,96322.60
2023-04-16T00:42:31.373Z,96322.60
2023-04-16T00:44:59.435Z,96323.00
2023-04-16T00:47:28.197Z,96324.80
2023-04-16T00:49:56.586Z,96330.80
2023-04-16T00:52:24.859Z,96328.20
2023-04-16T00:54:52.992Z,96324.40
2023-04-16T00:57:24.019Z,96325.40
2023-04-16T00:59:52.202Z,96319.60
2023-04-16T01:02:20.275Z,96319.80
2023-04-16T01:04:51.795Z,96317.80
2023-04-16T01:07:22.712Z,96320.40
2023-04-16T01:09:50.729Z,96325.40
2023-04-16T01:12:18.807Z,96319.60
2023-04-16T01:14:46.818Z,96324.60
2023-04-16T01:17:14.836Z,96326.60
2023-04-16T01:19:43.996Z,96326.20
2023-04-16T01:22:12.053Z,96326.40
2023-04-16T01:24:40.570Z,96324.40
2023-04-16T01:27:11.414Z,96324.20
2023-04-16T01:29:39.432Z,96317.80
2023-04-16T01:32:07.583Z,96322.20
2023-04-16T01:34:38.187Z,96318.60
2023-04-16T01:37:06.150Z,96319.40
2023-04-16T01:39:34.450Z,96318.00
2023-04-16T01:42:02.913Z,96317.40
2023-04-16T01:44:31.076Z,96316.80
2023-04-16T01:46:59.277Z,96312.20
2023-04-16T01:49:27.304Z,96313.20
2023-04-16T01:51:55.640Z,96314.60
2023-04-16T01:54:23.740Z,96310.80
2023-04-16T01:56:51.714Z,96314.60
2023-04-16T01:59:20.553Z,96312.80
2023-04-16T02:01:48.808Z,96312.40
2023-04-16T02:04:17.003Z,96310.60
2023-04-16T02:06:45.330Z,96311.00
2023-04-16T02:09:15.188Z,96309.20
2023-04-16T02:11:43.330Z,96303.40
2023-04-16T02:14:11.357Z,96302.80
2023-04-16T02:16:39.435Z,96307.20
2023-04-16T02:19:22.392Z,96315.80
2023-04-16T02:21:53.950Z,96314.60
2023-04-16T02:24:21.964Z,96313.00
2023-04-16T02:26:50.453Z,96309.60
2023-04-16T02:29:19.539Z,96307.40
2023-04-16T02:31:52.363Z,96305.20
2023-04-16T02:34:20.887Z,96307.80
2023-04-16T02:36:49.070Z,96305.00
2023-04-16T02:39:17.701Z,96308.40
2023-04-16T02:41:45.846Z,96309.20
2023-04-16T02:44:14.384Z,96305.80
2023-04-16T02:46:42.425Z,96307.80
2023-04-16T02:49:10.914Z,96310.00
2023-04-16T02:51:39.011Z,96309.00
2023-04-16T02:54:07.021Z,96313.20
2023-04-16T02:56:35.070Z,96318.20
2023-04-16T02:59:03.189Z,96316.60
2023-04-16T03:01:31.704Z,96308.20
2023-04-16T03:04:00.019Z,96310.60
2023-04-16T03:06:28.226Z,96305.20
2023-04-16T03:08:56.358Z,96307.40
2023-04-16T03:11:24.941Z,96309.60
2023-04-16T03:13:53.855Z,96307.80
2023-04-16T03:16:22.430Z,96308.20
2023-04-16T03:18:50.578Z,96311.20
2023-04-16T03:21:18.543Z,96315.00
2023-04-16T03:23:46.556Z,96319.20
2023-04-16T03:26:14.661Z,96317.20
2023-04-16T03:28:43.331Z,96314.00
2023-04-16T03:31:11.456Z,96312.20
2023-04-16T03:33:39.940Z,96316.00
2023-04-16T03:36:08.445Z,96314.80
2023-04-16T03:38:36.722Z,96321.20
2023-04-16T03:41:05.046Z,96319.60
2023-04-16T03:43:33.965Z,96328.20
2023-04-16T03:46:02.083Z,96325.40
2023-04-16T03:48:30.291Z,96328.00
2023-04-16T03:50:59.149Z,96328.60
2023-04-16T03:53:27.388Z,96329.00
2023-04-16T03:55:55.602Z,96334.40
2023-04-16T03:58:23.718Z,96336.40
2023-04-16T04:00:55.725Z,96333.20
2023-04-16T04:03:24.116Z,96336.00
2023-04-16T04:05:52.473Z,96335.20
2023-04-16T04:08:30.984Z,96337.40
2023-04-16T04:10:59.164Z,96342.80
2023-04-16T04:13:27.457Z,96348.40
2023-04-16T04:15:55.733Z,96343.80
2023-04-16T04:18:24.454Z,96343.60
2023-04-16T04:20:52.671Z,96346.40
2023-04-16T04:23:22.354Z,96345.40
2023-04-16T04:25:50.971Z,96347.40
2023-04-16T04:28:19.047Z,96352.00
2023-04-16T04:30:47.082Z,96352.00
2023-04-16T04:33:15.544Z,96353.60
2023-04-16T04:35:43.690Z,96351.20
2023-04-16T04:38:13.570Z,96354.40
2023-04-16T04:40:43.096Z,96354.40
2023-04-16T04:43:11.225Z,96355.40
2023-04-16T04:45:39.472Z,96365.40
2023-04-16T04:48:07.738Z,96358.60
2023-04-16T04:50:36.935Z,96357.00
2023-04-16T04:53:10.070Z,96355.80
2023-04-16T04:55:41.873Z,96364.60
2023-04-16T04:58:10.490Z,96369.60
2023-04-16T05:00:38.632Z,96368.20
2023-04-16T05:03:10.628Z,96369.40
2023-04-16T05:05:41.735Z,96365.80
2023-04-16T05:08:09.711Z,96367.40
2023-04-16T05:10:37.645Z,96370.20
2023-04-16T05:13:05.730Z,96373.00
2023-04-16T05:15:33.665Z,96376.00
2023-04-16T05:18:01.713Z,96371.80
2023-04-16T05:20:29.691Z,96371.00
2023-04-16T05:22:57.966Z,96377.00
2023-04-16T05:25:26.308Z,96376.00
2023-04-16T05:27:54.519Z,96381.20
2023-04-16T05:30:22.516Z,96382.20
2023-04-16T05:32:50.544Z,96382.60
2023-04-16T05:35:18.603Z,96380.00
2023-04-16T05:37:46.637Z,96382.60
2023-04-16T05:40:14.686Z,96378.40
2023-04-16T05:42:42.710Z,96376.40
2023-04-16T05:45:11.011Z,96378.80
2023-04-16T05:47:39.056Z,96379.40
2023-04-16T05:50:07.636Z,96384.20
2023-04-16T05:52:35.876Z,96379.00
2023-04-16T05:55:04.197Z,96378.00
2023-04-16T05:57:33.385Z,96381.20
2023-04-16T06:00:01.421Z,96390.20
2023-04-16T06:02:31.544Z,96382.40
2023-04-16T06:04:59.684Z,96395.20
2023-04-16T06:07:27.857Z,96391.60
2023-04-16T06:09:55.881Z,96390.00
2023-04-16T06:12:23.929Z,96394.60
2023-04-16T06:14:52.024Z,96393.80
2023-04-16T06:17:20.153Z,96394.80
2023-04-16T06:19:48.402Z,96393.60
2023-04-16T06:22:16.464Z,96393.60
2023-04-16T06:24:44.558Z,96397.20
2023-04-16T06:27:12.620Z,96399.20
2023-04-16T06:29:41.837Z,96403.80
2023-04-16T06:32:10.071Z,96402.60
2023-04-16T06:34:38.648Z,96401.60
2023-04-16T06:37:09.115Z,96403.00
2023-04-16T06:39:38.718Z,96400.60
2023-04-16T06:42:06.747Z,96400.80
2023-04-16T06:44:35.713Z,96409.40
2023-04-16T06:47:03.908Z,96403.40
2023-04-16T06:49:31.962Z,96405.40
2023-04-16T06:52:00.187Z,96403.80
2023-04-16T06:54:28.282Z,96403.00
2023-04-16T06:56:56.444Z,96410.40
2023-04-16T06:59:24.826Z,96410.80
2023-04-16T07:01:53.052Z,96408.40
2023-04-16T07:04:21.272Z,96408.80
2023-04-16T07:06:49.365Z,96409.60
2023-04-16T07:09:18.077Z,96408.60
2023-04-16T07:11:46.688Z,96404.80
2023-04-16T07:14:14.699Z,96404.80
2023-04-16T07:16:42.788Z,96405.80
2023-04-16T07:19:11.437Z,96410.20
2023-04-16T07:21:39.703Z,96413.60
2023-04-16T07:24:07.756Z,96410.00
2023-04-16T07:26:35.743Z,96412.80
2023-04-16T07:29:03.777Z,96413.00
2023-04-16T07:31:31.887Z,96414.80
2023-04-16T07:33:59.918Z,96412.60
2023-04-16T07:36:28.450Z,96415.20
2023-04-16T07:38:56.503Z,96413.40
2023-04-16T07:41:24.804Z,96412.00
2023-04-16T07:43:52.755Z,96412.40
2023-04-16T07:46:21.172Z,96411.80
2023-04-16T07:48:49.373Z,96409.00
2023-04-16T07:51:17.446Z,96408.20
2023-04-16T07:53:45.464Z,96413.20
2023-04-16T07:56:13.582Z,96407.00
2023-04-16T07:58:41.603Z,96403.60
2023-04-16T08:01:09.583Z,96406.20
2023-04-16T08:03:37.802Z,96401.80
2023-04-16T08:06:06.038Z,96405.40
2023-04-16T08:08:34.079Z,96403.80
2023-04-16T08:11:02.129Z,96405.40
2023-04-16T08:13:31.227Z,96402.80
2023-04-16T08:16:01.107Z,96401.60
2023-04-16T08:18:29.112Z,96398.20
2023-04-16T08:20:57.281Z,96393.60
2023-04-16T08:23:25.398Z,96391.40
2023-04-16T08:25:53.466Z,96389.00
2023-04-16T08:28:21.449Z,96392.40
2023-04-16T08:30:49.497Z,96391.20
2023-04-16T08:33:17.555Z,96389.80
2023-04-16T08:35:45.840Z,96388.00
2023-04-16T08:38:13.865Z,96389.60
2023-04-16T08:40:41.924Z,96393.20
2023-04-16T08:43:11.717Z,96392.00
2023-04-16T08:45:41.600Z,96393.20
2023-04-16T08:48:11.222Z,96400.40
2023-04-16T08:50:39.358Z,96396.80
2023-04-16T08:58:21.479Z,96398.00
2023-04-16T09:00:49.634Z,96398.60
2023-04-16T09:03:20.059Z,96402.60
2023-04-16T09:05:48.981Z,96399.20
2023-04-16T09:08:17.592Z,96401.60
2023-04-16T09:10:45.752Z,96400.80
2023-04-16T09:13:15.837Z,96399.20
2023-04-16T09:15:44.159Z,96403.40
2023-04-16T09:18:12.419Z,96398.80
2023-04-16T09:20:40.397Z,96400.40
2023-04-16T09:23:09.429Z,96398.80
2023-04-16T09:25:38.675Z,96396.80
2023-04-16T09:28:06.706Z,96397.20
2023-04-16T09:30:34.972Z,96396.60
2023-04-16T09:33:22.563Z,96400.20
2023-04-16T09:35:52.758Z,96398.20
2023-04-16T09:38:21.228Z,96401.20
2023-04-16T09:40:49.574Z,96401.00
2023-04-16T09:43:18.500Z,96393.80
2023-04-16T09:45:51.129Z,96398.00
2023-04-16T09:48:31.813Z,96394.00
2023-04-16T09:51:00.488Z,96388.00
2023-04-16T09:53:29.762Z,96387.40
2023-04-16T09:56:01.631Z,96390.80
2023-04-16T09:58:29.882Z,96388.20
2023-04-16T10:01:01.619Z,96378.60
2023-04-16T10:03:31.895Z,96386.60
2023-04-16T10:06:20.672Z,96386.20
2023-04-16T10:08:50.371Z,96378.80
2023-04-16T10:11:19.480Z,96376.60
2023-04-16T10:13:47.449Z,96377.20
2023-04-16T10:16:15.539Z,96379.60
2023-04-16T10:18:44.483Z,96372.00
2023-04-16T10:21:12.984Z,96373.40
2023-04-16T10:23:41.199Z,96365.60
2023-04-16T10:26:09.485Z,96367.40
2023-04-16T10:28:37.700Z,96362.00
2023-04-16T10:31:07.812Z,96363.00
2023-04-16T10:33:40.255Z,96363.20
2023-04-16T10:36:09.765Z,96364.20
2023-04-16T10:38:50.457Z,96361.20
2023-04-16T10:41:19.971Z,96361.80
2023-04-16T10:43:49.525Z,96362.00
2023-04-16T10:46:49.495Z,96366.80
2023-04-16T10:49:19.403Z,96361.40
2023-04-16T10:52:02.327Z,96356.80
2023-04-16T10:54:31.145Z,96355.80
2023-04-16T10:57:02.234Z,96362.20
2023-04-16T10:59:36.539Z,96359.40
2023-04-16T11:02:09.826Z,96360.40
2023-04-16T11:04:39.102Z,96355.00
2023-04-16T11:07:19.388Z,96350.40
2023-04-16T11:10:00.698Z,96349.40
2023-04-16T11:12:34.759Z,96356.60
2023-04-16T11:15:09.668Z,96360.80
2023-04-16T11:17:44.312Z,96358.20
2023-04-16T11:20:28.240Z,96351.60
2023-04-16T11:22:56.972Z,96347.60
2023-04-16T11:25:26.377Z,96352.20
2023-04-16T11:27:54.935Z,96352.60
2023-04-16T11:30:36.350Z,96350.20
2023-04-16T11:33:05.526Z,96350.00
2023-04-16T11:35:33.584Z,96348.20
2023-04-16T11:38:01.860Z,96349.20
2023-04-16T11:40:30.565Z,96343.60
2023-04-16T11:43:26.202Z,96337.40
2023-04-16T11:45:57.289Z,96334.20
2023-04-16T11:48:25.339Z,96331.00
2023-04-16T11:50:57.436Z,96330.20
2023-04-16T11:53:25.763Z,96328.00
2023-04-16T11:55:53.894Z,96323.40
2023-04-16T11:58:23.460Z,96318.40
2023-04-16T12:00:53.558Z,96315.00
2023-04-16T12:03:43.421Z,96306.60
2023-04-16T12:06:12.080Z,96308.60
2023-04-16T12:08:40.294Z,96314.40
2023-04-16T12:11:08.371Z,96308.40
2023-04-16T12:13:40.076Z,96300.60
2023-04-16T12:16:19.882Z,96295.60
2023-04-16T12:19:01.717Z,96299.60
2023-04-16T12:21:46.349Z,96294.40
2023-04-16T12:24:16.242Z,96297.40
2023-04-16T12:26:46.584Z,96292.60
2023-04-16T12:29:19.647Z,96295.00
2023-04-16T12:31:48.496Z,96286.20
2023-04-16T12:34:17.164Z,96292.80
2023-04-16T12:36:45.981Z,96289.60
2023-04-16T12:39:14.646Z,96282.80
2023-04-16T12:41:43.474Z,96275.60
2023-04-16T12:44:16.605Z,96273.60
2023-04-16T12:46:45.104Z,96276.20
2023-04-16T12:49:13.341Z,96269.60
2023-04-16T12:51:41.513Z,96268.00
2023-04-16T12:54:09.711Z,96264.60
2023-04-16T12:56:37.937Z,96265.40
2023-04-16T12:59:06.211Z,96262.60
2023-04-16T13:01:37.196Z,96257.80
2023-04-16T13:04:06.025Z,96255.20
2023-04-16T13:06:34.282Z,96256.60
2023-04-16T13:09:02.373Z,96253.40
2023-04-16T13:11:30.538Z,96251.60
2023-04-16T13:13:58.760Z,96245.80
2023-04-16T13:16:26.810Z,96247.80
2023-04-16T13:18:54.998Z,96245.20
2023-04-16T13:21:23.935Z,96244.40
2023-04-16T13:23:52.044Z,96248.00
2023-04-16T13:26:20.089Z,96248.00
2023-04-16T13:28:48.140Z,96242.80
2023-04-16T13:31:19.997Z,96244.00
2023-04-16T13:33:48.235Z,96245.00
2023-04-16T13:36:16.337Z,96255.00
2023-04-16T13:38:44.538Z,96254.60
2023-04-16T13:41:12.581Z,96268.20
2023-04-16T13:43:40.754Z,96273.20
2023-04-16T13:46:08.758Z,96265.60
2023-04-16T13:48:36.787Z,96261.80
2023-04-16T13:51:04.862Z,96258.80
2023-04-16T13:53:32.957Z,96261.80
2023-04-16T13:56:03.779Z,96255.80
2023-04-16T13:58:31.906Z,96257.40
2023-04-16T14:01:00.157Z,96265.20
2023-04-16T14:03:28.362Z,96268.20
2023-04-16T14:05:57.154Z,96269.20
2023-04-16T14:08:25.458Z,96263.60
2023-04-16T14:10:55.645Z,96262.20
2023-04-16T14:13:24.276Z,96265.60
2023-04-16T14:15:55.827Z,96266.60
2023-04-16T14:18:23.899Z,96265.60
2023-04-16T14:20:51.968Z,96270.40
2023-04-16T14:23:20.001Z,96269.60
2023-04-16T14:25:48.667Z,96274.20
2023-04-16T14:28:17.173Z,96273.00
2023-04-16T14:30:45.253Z,96275.00
2023-04-16T14:33:13.192Z,96265.00
2023-04-16T14:35:41.330Z,96274.60
2023-04-16T14:38:09.527Z,96274.60
2023-04-16T14:40:37.617Z,96272.80
2023-04-16T14:43:05.840Z,96264.40
2023-04-16T14:45:33.943Z,96263.00
2023-04-16T14:48:02.283Z,96263.40
2023-04-16T14:50:30.388Z,96261.00
2023-04-16T14:52:58.549Z,96259.20
2023-04-16T14:55:26.724Z,96258.20
2023-04-16T14:57:54.821Z,96262.20
2023-04-16T15:00:23.666Z,96263.60
2023-04-16T15:02:51.935Z,96262.20
2023-04-16T15:05:20.020Z,96262.60
2023-04-16T15:07:48.100Z,96264.20
2023-04-16T15:10:16.475Z,96257.40
2023-04-16T15:12:44.520Z,96256.40
2023-04-16T15:15:12.611Z,96259.20
2023-04-16T15:17:42.742Z,96260.40
2023-04-16T15:20:11.624Z,96259.20
2023-04-16T15:22:40.041Z,96257.60
2023-04-16T15:25:08.490Z,96257.40
2023-04-16T15:27:36.681Z,96256.80
2023-04-16T15:30:05.236Z,96266.20
2023-04-16T15:32:33.351Z,96278.20
2023-04-16T15:35:02.979Z,96286.60
2023-04-16T15:37:31.412Z,96290.80
2023-04-16T15:39:59.407Z,96289.80
2023-04-16T15:42:27.428Z,96303.40
2023-04-16T15:44:55.523Z,96286.20
2023-04-16T15:47:23.666Z,96284.00
2023-04-16T15:49:51.735Z,96282.60
2023-04-16T15:52:20.415Z,96280.40
2023-04-16T15:54:48.602Z,96286.00
2023-04-16T15:57:16.749Z,96276.60
2023-04-16T15:59:52.930Z,96280.60
2023-04-16T16:02:33.848Z,96280.20
2023-04-16T16:05:03.382Z,96278.80
2023-04-16T16:07:31.388Z,96276.20
2023-04-16T16:09:59.413Z,96279.80
2023-04-16T16:12:27.685Z,96281.00
2023-04-16T16:14:56.016Z,96277.40
2023-04-16T16:17:24.475Z,96274.80
2023-04-16T16:19:52.586Z,96272.20
2023-04-16T16:22:23.650Z,96272.60
2023-04-16T16:24:51.838Z,96276.20
2023-04-16T16:27:20.051Z,96275.60
2023-04-16T16:29:48.009Z,96275.00
2023-04-16T16:32:16.651Z,96274.20
2023-04-16T16:34:44.657Z,96273.60
2023-04-16T16:37:12.713Z,96274.20
2023-04-16T16:39:40.876Z,96269.80
2023-04-16T16:42:09.302Z,96266.60
2023-04-16T16:44:37.781Z,96270.20
2023-04-16T16:47:05.843Z,96265.40
2023-04-16T16:49:33.933Z,96273.20
2023-04-16T16:52:01.985Z,96275.80
2023-04-16T16:54:29.952Z,96269.60
2023-04-16T16:56:58.849Z,96271.20
2023-04-16T16:59:26.967Z,96271.00
2023-04-16T17:01:54.931Z,96270.80
2023-04-16T17:04:23.075Z,96271.00
2023-04-16T17:06:51.482Z,96273.60
2023-04-16T17:09:19.518Z,96279.00
2023-04-16T17:11:47.763Z,96279.20
2023-04-16T17:14:15.743Z,96286.40
2023-04-16T17:16:46.540Z,96288.20
2023-04-16T17:19:15.499Z,96292.00
2023-04-16T17:21:43.804Z,96295.60
2023-04-16T17:24:12.024Z,96294.20
2023-04-16T17:26:41.263Z,96305.20
2023-04-16T17:29:09.528Z,96302.20
2023-04-16T17:31:37.878Z,96307.20
2023-04-16T17:34:06.426Z,96309.80
2023-04-16T17:36:34.517Z,96307.40
2023-04-16T17:39:02.571Z,96319.60
2023-04-16T17:41:31.037Z,96315.20
2023-04-16T17:43:59.324Z,96320.20
2023-04-16T17:46:27.488Z,96316.40
2023-04-16T17:48:55.538Z,96323.40
2023-04-16T17:51:23.693Z,96324.60
2023-04-16T17:53:52.072Z,96326.40
2023-04-16T17:56:20.039Z,96326.20
2023-04-16T17:58:48.080Z,96327.40
2023-04-16T18:01:16.144Z,96329.00
2023-04-16T18:03:44.707Z,96325.00
2023-04-16T18:06:12.894Z,96330.40
2023-04-16T18:08:41.025Z,96332.60
2023-04-16T18:11:09.222Z,96335.20
2023-04-16T18:13:37.325Z,96336.40
2023-04-16T18:16:06.288Z,96341.60
2023-04-16T18:18:34.445Z,96340.20
2023-04-16T18:21:02.521Z,96341.20
2023-04-16T18:23:30.500Z,96342.40
2023-04-16T18:25:58.772Z,96343.40
2023-04-16T18:28:26.947Z,96338.80
2023-04-16T18:30:58.728Z,96340.60
2023-04-16T18:33:49.962Z,96345.40
2023-04-16T18:36:16.016Z,96352.00
2023-04-16T18:38:57.480Z,96344.00
2023-04-16T18:41:28.882Z,96344.80
2023-04-16T18:43:56.996Z,96350.00
2023-04-16T18:46:25.462Z,96353.40
2023-04-16T18:48:53.783Z,96356.80
2023-04-16T18:51:21.848Z,96355.20
2023-04-16T18:53:50.068Z,96354.60
2023-04-16T18:56:18.549Z,96352.40
2023-04-16T18:58:47.801Z,96359.40
2023-04-16T19:01:16.679Z,96356.80
2023-04-16T19:03:45.695Z,96362.40
2023-04-16T19:06:13.906Z,96360.40
2023-04-16T19:08:41.929Z,96359.20
2023-04-16T19:11:12.022Z,96351.00
2023-04-16T19:13:40.188Z,96360.40
2023-04-16T19:16:11.558Z,96354.20
2023-04-16T19:18:39.857Z,96364.40
2023-04-16T19:21:10.036Z,96358.60
2023-04-16T19:23:38.083Z,96360.20
2023-04-16T19:26:06.453Z,96358.40
2023-04-16T19:28:34.557Z,96357.00
2023-04-16T19:31:02.738Z,96359.80
2023-04-16T19:33:31.450Z,96355.00
2023-04-16T19:36:00.504Z,96354.40
2023-04-16T19:38:29.283Z,96354.40
2023-04-16T19:40:57.546Z,96354.00
2023-04-16T19:43:25.799Z,96351.00
2023-04-16T19:45:54.287Z,96354.80
2023-04-16T19:48:22.442Z,96349.00
2023-04-16T19:50:50.566Z,96346.60
2023-04-16T19:53:18.714Z,96349.20
2023-04-16T19:55:46.844Z,96347.80
2023-04-16T19:58:15.169Z,96344.80
2023-04-16T20:00:43.694Z,96349.00
2023-04-16T20:03:11.928Z,96348.80
2023-04-16T20:05:40.124Z,96351.00
2023-04-16T20:08:08.199Z,96346.80
2023-04-16T20:10:36.236Z,96350.20
2023-04-16T20:13:05.047Z,96343.00
2023-04-16T20:15:33.093Z,96342.20
2023-04-16T20:18:01.142Z,96340.20
2023-04-16T20:20:29.151Z,96340.20
2023-04-16T20:22:57.262Z,96338.60
2023-04-16T20:25:26.644Z,96337.80
2023-04-16T20:27:54.786Z,96338.00
2023-04-16T20:30:28.786Z,96332.20
2023-04-16T20:32:56.953Z,96337.40
2023-04-16T20:35:24.951Z,96334.20
2023-04-16T20:37:52.969Z,96328.40
2023-04-16T20:40:21.262Z,96331.20
2023-04-16T20:42:52.179Z,96332.80
2023-04-16T20:45:20.314Z,96336.80
2023-04-16T20:47:48.384Z,96331.80
2023-04-16T20:50:16.740Z,96332.80
2023-04-16T20:52:44.700Z,96338.60
2023-04-16T20:55:12.696Z,96336.20
2023-04-16T20:57:40.745Z,96330.80
2023-04-16T21:00:10.975Z,96333.40
2023-04-16T21:02:39.291Z,96335.60
2023-04-16T21:05:13.913Z,96336.80
2023-04-16T21:07:42.136Z,96331.80
2023-04-16T21:10:10.968Z,96331.40
2023-04-16T21:12:39.044Z,96328.80
2023-04-16T21:15:07.649Z,96330.00
2023-04-16T21:17:35.977Z,96323.60
2023-04-16T21:20:07.010Z,96323.60
2023-04-16T21:22:35.042Z,96324.20
2023-04-16T21:25:03.858Z,96318.40
2023-04-16T21:27:31.806Z,96322.20
2023-04-16T21:29:59.908Z,96320.80
2023-04-16T21:32:27.985Z,96321.00
2023-04-16T21:34:56.057Z,96320.40
2023-04-16T21:37:24.262Z,96319.60
2023-04-16T21:39:52.313Z,96320.00
2023-04-16T21:42:20.455Z,96321.40
2023-04-16T21:44:48.502Z,96318.20
2023-04-16T21:47:16.456Z,96313.60
2023-04-16T21:49:44.672Z,96313.80
2023-04-16T21:52:18.334Z,96313.00
2023-04-16T21:54:46.412Z,96312.40
2023-04-16T21:57:14.737Z,96311.60
2023-04-16T21:59:42.686Z,96311.20
2023-04-16T22:02:10.919Z,96308.20
2023-04-16T22:04:39.417Z,96307.60
2023-04-16T22:07:09.009Z,96310.00
2023-04-16T22:09:37.276Z,96306.80
2023-04-16T22:12:11.750Z,96305.60
2023-04-16T22:14:46.156Z,96307.80
2023-04-16T22:17:17.357Z,96308.00
2023-04-16T22:19:45.559Z,96307.40
2023-04-16T22:22:13.670Z,96306.20
2023-04-16T22:24:42.401Z,96306.40
2023-04-16T22:27:10.402Z,96307.40
2023-04-16T22:29:38.477Z,96304.60
2023-04-16T22:32:06.617Z,96305.80
2023-04-16T22:34:34.726Z,96305.20
2023-04-16T22:37:03.252Z,96300.80
2023-04-16T22:39:31.754Z,96302.00
2023-04-16T22:41:59.824Z,96302.20
2023-04-16T22:44:28.084Z,96301.80
2023-04-16T22:46:56.192Z,96292.80
2023-04-16T22:49:24.430Z,96293.60
2023-04-16T22:51:52.471Z,96292.00
2023-04-16T22:54:20.472Z,96291.20
2023-04-16T22:56:48.726Z,96290.20
2023-04-16T22:59:16.824Z,96289.20
2023-04-16T23:01:44.933Z,96287.20
2023-04-16T23:04:12.987Z,96285.20
2023-04-16T23:06:42.183Z,96283.20
2023-04-16T23:09:10.697Z,96280.60
2023-04-16T23:11:38.991Z,96282.60
2023-04-16T23:14:07.824Z,96284.20
2023-04-16T23:16:36.044Z,96283.20
2023-04-16T23:19:03.951Z,96278.40
2023-04-16T23:21:32.562Z,96281.40
2023-04-16T23:24:00.629Z,96278.20
2023-04-16T23:26:28.691Z,96276.00
2023-04-16T23:28:57.584Z,96279.80
2023-04-16T23:31:26.028Z,96274.60
2023-04-16T23:33:54.390Z,96270.40
2023-04-16T23:36:22.412Z,96266.80
2023-04-16T23:38:50.477Z,96267.40
2023-04-16T23:41:18.501Z,96260.20
2023-04-16T23:43:46.612Z,96260.60
2023-04-16T23:46:14.766Z,96261.40
2023-04-16T23:48:42.889Z,96259.40
2023-04-16T23:51:11.058Z,96256.40
2023-04-16T23:53:40.790Z,96257.20
2023-04-16T23:56:11.244Z,96257.80
2023-04-16T23:58:39.451Z,96253.40
